createdAt,value
2018-08-16T00:00:12.743Z,1012.05
2018-08-16T00:01:12.732Z,1012.03
2018-08-16T00:02:12.719Z,1012.02
2018-08-16T00:03:12.709Z,1011.98
2018-08-16T00:04:12.705Z,1011.99
2018-08-16T00:05:12.692Z,1012.05
2018-08-16T00:06:12.675Z,1011.99
2018-08-16T00:07:12.665Z,1011.98
2018-08-16T00:08:12.654Z,1012.00
2018-08-16T00:09:12.640Z,1012.02
2018-08-16T00:10:12.628Z,1012.01
2018-08-16T00:11:12.620Z,1011.97
2018-08-16T00:12:12.609Z,1012.01
2018-08-16T00:13:12.596Z,1011.99
2018-08-16T00:14:12.582Z,1011.95
2018-08-16T00:15:12.571Z,1011.94
2018-08-16T00:16:12.558Z,1011.97
2018-08-16T00:17:12.552Z,1011.94
2018-08-16T00:18:12.545Z,1011.91
2018-08-16T00:19:12.532Z,1011.96
2018-08-16T00:20:12.514Z,1011.90
2018-08-16T00:21:12.506Z,1011.93
2018-08-16T00:22:12.491Z,1011.90
2018-08-16T00:23:12.482Z,1011.93
2018-08-16T00:24:12.472Z,1011.92
2018-08-16T00:25:12.454Z,1011.92
2018-08-16T00:26:12.443Z,1011.88
2018-08-16T00:27:12.437Z,1011.91
2018-08-16T00:28:12.423Z,1011.92
2018-08-16T00:29:12.415Z,1011.88
2018-08-16T00:30:12.400Z,1011.88
2018-08-16T00:31:12.387Z,1011.90
2018-08-16T00:32:12.379Z,1011.87
2018-08-16T00:33:12.364Z,1011.87
2018-08-16T00:34:12.354Z,1011.87
2018-08-16T00:35:12.339Z,1011.87
2018-08-16T00:36:12.331Z,1011.86
2018-08-16T00:37:12.318Z,1011.83
2018-08-16T00:38:12.318Z,1011.85
2018-08-16T00:39:12.294Z,1011.89
2018-08-16T00:40:12.288Z,1011.87
2018-08-16T00:41:12.272Z,1011.84
2018-08-16T00:42:12.263Z,1011.83
2018-08-16T00:43:12.249Z,1011.86
2018-08-16T00:44:12.239Z,1011.84
2018-08-16T00:45:12.230Z,1011.87
2018-08-16T00:46:12.218Z,1011.85
2018-08-16T00:47:12.212Z,1011.85
2018-08-16T00:48:12.196Z,1011.88
2018-08-16T00:49:12.195Z,1011.91
2018-08-16T00:50:12.170Z,1011.90
2018-08-16T00:51:12.160Z,1011.89
2018-08-16T00:52:12.161Z,1011.85
2018-08-16T00:53:12.137Z,1011.89
2018-08-16T00:54:12.125Z,1011.88
2018-08-16T00:55:12.111Z,1011.89
2018-08-16T00:56:12.101Z,1011.88
2018-08-16T00:57:12.088Z,1011.87
2018-08-16T00:58:12.080Z,1011.86
2018-08-16T00:59:12.075Z,1011.86
2018-08-16T01:00:12.053Z,1011.84
2018-08-16T01:01:12.042Z,1011.83
2018-08-16T01:02:12.034Z,1011.80
2018-08-16T01:03:12.019Z,1011.85
2018-08-16T01:04:12.007Z,1011.84
2018-08-16T01:05:12.000Z,1011.84
2018-08-16T01:06:11.983Z,1011.82
2018-08-16T01:07:11.975Z,1011.82
2018-08-16T01:08:11.962Z,1011.82
2018-08-16T01:09:11.949Z,1011.80
2018-08-16T01:10:11.936Z,1011.79
2018-08-16T01:11:11.926Z,1011.78
2018-08-16T01:12:11.912Z,1011.81
2018-08-16T01:13:11.905Z,1011.82
2018-08-16T01:14:11.906Z,1011.78
2018-08-16T01:15:11.880Z,1011.79
2018-08-16T01:16:11.867Z,1011.79
2018-08-16T01:17:11.856Z,1011.77
2018-08-16T01:18:11.843Z,1011.78
2018-08-16T01:19:11.836Z,1011.77
2018-08-16T01:20:11.852Z,1011.80
2018-08-16T01:21:11.807Z,1011.79
2018-08-16T01:22:11.803Z,1011.78
2018-08-16T01:23:11.789Z,1011.80
2018-08-16T01:24:11.773Z,1011.77
2018-08-16T01:25:11.765Z,1011.79
2018-08-16T01:26:11.754Z,1011.77
2018-08-16T01:27:11.741Z,1011.76
2018-08-16T01:28:11.731Z,1011.77
2018-08-16T01:29:11.717Z,1011.76
2018-08-16T01:30:11.707Z,1011.78
2018-08-16T01:31:11.688Z,1011.75
2018-08-16T01:32:11.678Z,1011.78
2018-08-16T01:33:11.684Z,1011.81
2018-08-16T01:34:11.663Z,1011.78
2018-08-16T01:35:11.641Z,1011.78
2018-08-16T01:36:11.632Z,1011.76
2018-08-16T01:37:11.620Z,1011.78
2018-08-16T01:38:11.608Z,1011.77
2018-08-16T01:39:11.597Z,1011.76
2018-08-16T01:40:11.586Z,1011.76
2018-08-16T01:41:11.577Z,1011.73
2018-08-16T01:42:11.560Z,1011.70
2018-08-16T01:43:11.551Z,1011.72
2018-08-16T01:44:11.539Z,1011.70
2018-08-16T01:45:11.529Z,1011.69
2018-08-16T01:46:11.522Z,1011.70
2018-08-16T01:47:11.505Z,1011.65
2018-08-16T01:48:11.490Z,1011.68
2018-08-16T01:49:11.477Z,1011.66
2018-08-16T01:50:11.465Z,1011.67
2018-08-16T01:51:11.452Z,1011.65
2018-08-16T01:52:11.446Z,1011.68
2018-08-16T01:53:11.431Z,1011.64
2018-08-16T01:54:11.418Z,1011.67
2018-08-16T01:55:11.408Z,1011.70
2018-08-16T01:56:11.395Z,1011.67
2018-08-16T01:57:11.383Z,1011.68
2018-08-16T01:58:11.369Z,1011.65
2018-08-16T01:59:11.366Z,1011.61
2018-08-16T02:00:11.345Z,1011.67
2018-08-16T02:01:11.334Z,1011.68
2018-08-16T02:02:11.323Z,1011.65
2018-08-16T02:03:11.309Z,1011.64
2018-08-16T02:04:11.297Z,1011.67
2018-08-16T02:05:11.349Z,1011.63
2018-08-16T02:06:11.274Z,1011.63
2018-08-16T02:07:11.261Z,1011.64
2018-08-16T02:08:11.251Z,1011.63
2018-08-16T02:09:11.240Z,1011.64
2018-08-16T02:10:11.226Z,1011.66
2018-08-16T02:11:11.216Z,1011.64
2018-08-16T02:12:11.204Z,1011.62
2018-08-16T02:13:11.190Z,1011.62
2018-08-16T02:14:11.182Z,1011.58
2018-08-16T02:15:11.166Z,1011.59
2018-08-16T02:16:11.157Z,1011.56
2018-08-16T02:17:11.142Z,1011.55
2018-08-16T02:18:11.130Z,1011.57
2018-08-16T02:19:11.127Z,1011.56
2018-08-16T02:20:11.110Z,1011.53
2018-08-16T02:21:11.105Z,1011.55
2018-08-16T02:22:11.082Z,1011.55
2018-08-16T02:23:11.069Z,1011.53
2018-08-16T02:24:11.057Z,1011.54
2018-08-16T02:25:11.045Z,1011.54
2018-08-16T02:26:11.032Z,1011.53
2018-08-16T02:27:11.020Z,1011.53
2018-08-16T02:28:11.012Z,1011.49
2018-08-16T02:29:11.002Z,1011.52
2018-08-16T02:30:10.985Z,1011.53
2018-08-16T02:31:10.972Z,1011.50
2018-08-16T02:32:10.963Z,1011.49
2018-08-16T02:33:10.947Z,1011.52
2018-08-16T02:34:10.935Z,1011.54
2018-08-16T02:35:10.925Z,1011.52
2018-08-16T02:36:10.911Z,1011.50
2018-08-16T02:37:10.900Z,1011.49
2018-08-16T02:38:10.884Z,1011.47
2018-08-16T02:39:10.873Z,1011.50
2018-08-16T02:40:10.869Z,1011.47
2018-08-16T02:41:10.853Z,1011.52
2018-08-16T02:42:10.836Z,1011.55
2018-08-16T02:43:10.824Z,1011.51
2018-08-16T02:44:10.815Z,1011.49
2018-08-16T02:45:10.800Z,1011.49
2018-08-16T02:46:10.789Z,1011.47
2018-08-16T02:47:10.777Z,1011.45
2018-08-16T02:48:10.773Z,1011.45
2018-08-16T02:49:10.750Z,1011.45
2018-08-16T02:50:10.736Z,1011.45
2018-08-16T02:51:10.725Z,1011.42
2018-08-16T02:52:10.715Z,1011.37
2018-08-16T02:53:10.704Z,1011.43
2018-08-16T02:54:10.699Z,1011.39
2018-08-16T02:55:10.674Z,1011.40
2018-08-16T02:56:10.662Z,1011.41
2018-08-16T02:57:10.652Z,1011.41
2018-08-16T02:58:10.639Z,1011.40
2018-08-16T02:59:10.627Z,1011.38
2018-08-16T03:00:10.614Z,1011.35
2018-08-16T03:01:10.604Z,1011.33
2018-08-16T03:02:10.587Z,1011.34
2018-08-16T03:03:10.575Z,1011.34
2018-08-16T03:04:10.562Z,1011.32
2018-08-16T03:05:10.561Z,1011.33
2018-08-16T03:06:10.620Z,1011.29
2018-08-16T03:07:10.528Z,1011.31
2018-08-16T03:08:10.512Z,1011.30
2018-08-16T03:09:10.500Z,1011.28
2018-08-16T03:10:10.491Z,1011.30
2018-08-16T03:11:10.472Z,1011.26
2018-08-16T03:12:10.473Z,1011.26
2018-08-16T03:13:10.457Z,1011.21
2018-08-16T03:14:10.435Z,1011.22
2018-08-16T03:15:10.428Z,1011.22
2018-08-16T03:16:10.411Z,1011.23
2018-08-16T03:17:10.404Z,1011.18
2018-08-16T03:18:10.387Z,1011.17
2018-08-16T03:19:10.374Z,1011.15
2018-08-16T03:20:10.363Z,1011.17
2018-08-16T03:21:10.363Z,1011.16
2018-08-16T03:22:10.336Z,1011.14
2018-08-16T03:23:10.324Z,1011.16
2018-08-16T03:24:10.312Z,1011.16
2018-08-16T03:25:10.300Z,1011.16
2018-08-16T03:26:10.289Z,1011.15
2018-08-16T03:27:10.277Z,1011.15
2018-08-16T03:28:10.262Z,1011.15
2018-08-16T03:29:10.249Z,1011.15
2018-08-16T03:30:10.235Z,1011.16
2018-08-16T03:31:10.224Z,1011.17
2018-08-16T03:32:10.223Z,1011.14
2018-08-16T03:33:10.198Z,1011.19
2018-08-16T03:34:10.188Z,1011.19
2018-08-16T03:35:10.178Z,1011.18
2018-08-16T03:36:10.159Z,1011.19
2018-08-16T03:37:10.150Z,1011.17
2018-08-16T03:38:10.137Z,1011.17
2018-08-16T03:39:10.120Z,1011.15
2018-08-16T03:40:10.109Z,1011.12
2018-08-16T03:41:10.099Z,1011.12
2018-08-16T03:42:10.083Z,1011.09
2018-08-16T03:43:10.074Z,1011.09
2018-08-16T03:44:10.060Z,1011.10
2018-08-16T03:45:10.046Z,1011.08
2018-08-16T03:46:10.032Z,1011.05
2018-08-16T03:47:10.018Z,1011.03
2018-08-16T03:48:10.033Z,1011.05
2018-08-16T03:49:09.993Z,1011.06
2018-08-16T03:50:09.980Z,1011.06
2018-08-16T03:51:09.971Z,1011.02
2018-08-16T03:52:09.968Z,1011.03
2018-08-16T03:53:09.941Z,1011.02
2018-08-16T03:54:09.927Z,1011.03
2018-08-16T03:55:09.918Z,1011.02
2018-08-16T03:56:09.904Z,1010.97
2018-08-16T03:57:09.891Z,1010.95
2018-08-16T03:58:09.878Z,1010.93
2018-08-16T03:59:09.863Z,1010.96
2018-08-16T04:00:09.854Z,1010.96
2018-08-16T04:01:09.843Z,1010.94
2018-08-16T04:02:09.825Z,1010.97
2018-08-16T04:03:09.813Z,1011.00
2018-08-16T04:04:09.801Z,1010.96
2018-08-16T04:05:09.792Z,1010.96
2018-08-16T04:06:09.774Z,1010.95
2018-08-16T04:07:09.765Z,1010.94
2018-08-16T04:08:09.751Z,1010.92
2018-08-16T04:09:09.738Z,1010.92
2018-08-16T04:10:09.722Z,1010.89
2018-08-16T04:11:09.709Z,1010.90
2018-08-16T04:12:09.699Z,1010.89
2018-08-16T04:13:09.686Z,1010.89
2018-08-16T04:14:09.670Z,1010.91
2018-08-16T04:15:09.657Z,1010.89
2018-08-16T04:16:09.647Z,1010.89
2018-08-16T04:17:09.633Z,1010.90
2018-08-16T04:18:09.620Z,1010.91
2018-08-16T04:19:09.608Z,1010.89
2018-08-16T04:20:09.594Z,1010.94
2018-08-16T04:21:09.584Z,1010.95
2018-08-16T04:22:09.569Z,1010.95
2018-08-16T04:23:09.559Z,1010.93
2018-08-16T04:24:09.543Z,1010.95
2018-08-16T04:25:09.533Z,1010.95
2018-08-16T04:26:09.517Z,1010.93
2018-08-16T04:27:09.508Z,1010.93
2018-08-16T04:28:09.495Z,1010.91
2018-08-16T04:29:09.538Z,1010.94
2018-08-16T04:30:09.467Z,1010.89
2018-08-16T04:31:09.466Z,1010.95
2018-08-16T04:32:09.441Z,1010.93
2018-08-16T04:33:09.427Z,1010.92
2018-08-16T04:34:09.414Z,1010.92
2018-08-16T04:35:09.494Z,1010.96
2018-08-16T04:36:09.389Z,1010.94
2018-08-16T04:37:09.375Z,1010.98
2018-08-16T04:38:09.363Z,1011.00
2018-08-16T04:39:09.351Z,1011.03
2018-08-16T04:40:09.337Z,1011.03
2018-08-16T04:41:09.328Z,1010.99
2018-08-16T04:42:09.316Z,1011.00
2018-08-16T04:43:09.299Z,1010.98
2018-08-16T04:44:09.288Z,1010.96
2018-08-16T04:45:09.273Z,1010.98
2018-08-16T04:46:09.265Z,1010.96
2018-08-16T04:47:09.250Z,1010.94
2018-08-16T04:48:09.239Z,1010.99
2018-08-16T04:49:09.230Z,1010.97
2018-08-16T04:50:09.213Z,1010.95
2018-08-16T04:51:09.197Z,1010.97
2018-08-16T04:52:09.183Z,1010.97
2018-08-16T04:53:09.170Z,1010.97
2018-08-16T04:54:09.158Z,1010.95
2018-08-16T04:55:09.149Z,1010.93
2018-08-16T04:56:09.132Z,1010.96
2018-08-16T04:57:09.119Z,1010.94
2018-08-16T04:58:09.107Z,1010.98
2018-08-16T04:59:09.095Z,1010.99
2018-08-16T05:00:09.081Z,1010.96
2018-08-16T05:01:09.066Z,1010.96
2018-08-16T05:02:09.054Z,1010.95
2018-08-16T05:03:09.041Z,1010.95
2018-08-16T05:04:09.026Z,1010.97
2018-08-16T05:05:09.023Z,1010.95
2018-08-16T05:06:09.004Z,1010.98
2018-08-16T05:07:08.988Z,1011.00
2018-08-16T05:08:08.983Z,1011.00
2018-08-16T05:09:08.964Z,1010.98
2018-08-16T05:10:08.952Z,1011.01
2018-08-16T05:11:08.956Z,1011.00
2018-08-16T05:12:08.928Z,1011.03
2018-08-16T05:13:08.916Z,1011.04
2018-08-16T05:14:08.902Z,1011.01
2018-08-16T05:15:08.893Z,1010.99
2018-08-16T05:16:08.872Z,1011.01
2018-08-16T05:17:08.900Z,1011.01
2018-08-16T05:18:08.845Z,1011.01
2018-08-16T05:19:08.832Z,1011.04
2018-08-16T05:20:08.828Z,1011.02
2018-08-16T05:21:08.807Z,1011.06
2018-08-16T05:22:08.795Z,1011.07
2018-08-16T05:23:08.784Z,1011.05
2018-08-16T05:24:08.770Z,1011.08
2018-08-16T05:25:08.755Z,1011.06
2018-08-16T05:26:08.747Z,1011.08
2018-08-16T05:27:08.735Z,1011.07
2018-08-16T05:28:08.716Z,1011.06
2018-08-16T05:29:08.717Z,1011.07
2018-08-16T05:30:08.692Z,1011.10
2018-08-16T05:31:08.680Z,1011.04
2018-08-16T05:32:08.671Z,1011.06
2018-08-16T05:33:08.663Z,1011.04
2018-08-16T05:34:08.647Z,1011.04
2018-08-16T05:35:08.633Z,1011.03
2018-08-16T05:36:08.617Z,1011.03
2018-08-16T05:37:08.608Z,1011.03
2018-08-16T05:38:08.592Z,1011.05
2018-08-16T05:39:08.583Z,1011.02
2018-08-16T05:40:08.574Z,1011.00
2018-08-16T05:41:08.559Z,1010.95
2018-08-16T05:42:08.556Z,1010.99
2018-08-16T05:43:08.678Z,1010.98
2018-08-16T05:44:08.520Z,1011.00
2018-08-16T05:45:08.511Z,1011.00
2018-08-16T05:46:08.496Z,1010.95
2018-08-16T05:47:08.486Z,1010.97
2018-08-16T05:48:08.473Z,1010.96
2018-08-16T05:49:08.469Z,1010.95
2018-08-16T05:50:08.446Z,1011.00
2018-08-16T05:51:08.437Z,1010.96
2018-08-16T05:52:08.426Z,1010.98
2018-08-16T05:53:08.413Z,1010.96
2018-08-16T05:54:08.399Z,1010.95
2018-08-16T05:55:08.388Z,1010.97
2018-08-16T05:56:08.378Z,1010.97
2018-08-16T05:57:08.364Z,1010.96
2018-08-16T05:58:08.358Z,1010.95
2018-08-16T05:59:08.341Z,1010.96
2018-08-16T06:00:08.330Z,1010.97
2018-08-16T06:01:08.316Z,1010.99
2018-08-16T06:02:08.304Z,1011.04
2018-08-16T06:03:08.295Z,1010.99
2018-08-16T06:04:08.281Z,1011.06
2018-08-16T06:05:08.274Z,1011.05
2018-08-16T06:06:08.258Z,1011.06
2018-08-16T06:07:08.246Z,1011.03
2018-08-16T06:08:08.231Z,1010.99
2018-08-16T06:09:08.223Z,1011.03
2018-08-16T06:10:08.207Z,1011.04
2018-08-16T06:11:08.200Z,1011.03
2018-08-16T06:12:08.185Z,1011.01
2018-08-16T06:13:08.263Z,1011.03
2018-08-16T06:14:08.160Z,1010.99
2018-08-16T06:15:08.151Z,1010.96
2018-08-16T06:16:08.134Z,1010.98
2018-08-16T06:17:08.125Z,1010.95
2018-08-16T06:18:08.114Z,1010.93
2018-08-16T06:19:08.101Z,1010.91
2018-08-16T06:20:08.088Z,1010.94
2018-08-16T06:21:08.080Z,1010.97
2018-08-16T06:22:08.067Z,1010.94
2018-08-16T06:23:08.054Z,1010.96
2018-08-16T06:24:08.075Z,1010.95
2018-08-16T06:25:08.045Z,1010.97
2018-08-16T06:26:08.023Z,1011.01
2018-08-16T06:27:08.009Z,1010.99
2018-08-16T06:28:08.003Z,1010.99
2018-08-16T06:29:07.989Z,1010.98
2018-08-16T06:30:07.982Z,1010.96
2018-08-16T06:31:08.032Z,1010.95
2018-08-16T06:32:07.952Z,1010.94
2018-08-16T06:33:07.947Z,1011.00
2018-08-16T06:34:07.938Z,1010.98
2018-08-16T06:35:07.916Z,1010.98
2018-08-16T06:36:07.915Z,1011.02
2018-08-16T06:37:07.894Z,1011.00
2018-08-16T06:38:07.883Z,1011.01
2018-08-16T06:39:07.873Z,1011.05
2018-08-16T06:40:07.863Z,1011.05
2018-08-16T06:41:07.851Z,1011.05
2018-08-16T06:42:07.842Z,1011.02
2018-08-16T06:43:07.826Z,1011.03
2018-08-16T06:44:07.817Z,1011.00
2018-08-16T06:45:07.808Z,1011.02
2018-08-16T06:46:07.847Z,1011.01
2018-08-16T06:47:07.784Z,1011.01
2018-08-16T06:48:07.776Z,1010.99
2018-08-16T06:49:07.765Z,1010.99
2018-08-16T06:50:07.756Z,1010.95
2018-08-16T06:51:07.746Z,1010.98
2018-08-16T06:52:07.740Z,1010.95
2018-08-16T06:53:07.723Z,1010.97
2018-08-16T06:54:07.710Z,1010.94
2018-08-16T06:55:07.724Z,1010.99
2018-08-16T06:56:07.695Z,1010.95
2018-08-16T06:57:07.684Z,1010.94
2018-08-16T06:58:07.690Z,1010.96
2018-08-16T06:59:07.662Z,1010.99
2018-08-16T07:00:07.650Z,1010.94
2018-08-16T07:01:07.648Z,1010.94
2018-08-16T07:02:07.632Z,1010.90
2018-08-16T07:03:07.624Z,1010.87
2018-08-16T07:04:07.614Z,1010.89
2018-08-16T07:05:07.605Z,1010.85
2018-08-16T07:06:07.596Z,1010.91
2018-08-16T07:07:07.579Z,1010.89
2018-08-16T07:08:07.575Z,1010.84
2018-08-16T07:09:07.563Z,1010.87
2018-08-16T07:10:07.551Z,1010.87
2018-08-16T07:11:07.543Z,1010.87
2018-08-16T07:12:07.605Z,1010.86
2018-08-16T07:13:07.522Z,1010.88
2018-08-16T07:14:07.515Z,1010.88
2018-08-16T07:15:07.506Z,1010.89
2018-08-16T07:16:07.497Z,1010.87
2018-08-16T07:17:07.485Z,1010.86
2018-08-16T07:18:07.474Z,1010.88
2018-08-16T07:19:07.467Z,1010.92
2018-08-16T07:20:07.456Z,1010.91
2018-08-16T07:21:07.449Z,1010.97
2018-08-16T07:22:07.439Z,1011.11
2018-08-16T07:23:07.431Z,1011.24
2018-08-16T07:24:07.427Z,1011.18
2018-08-16T07:25:07.420Z,1011.17
2018-08-16T07:26:07.410Z,1011.22
2018-08-16T07:27:07.401Z,1011.20
2018-08-16T07:28:07.401Z,1011.14
2018-08-16T07:29:07.390Z,1011.24
2018-08-16T07:30:07.455Z,1011.26
2018-08-16T07:31:07.378Z,1011.23
2018-08-16T07:32:07.375Z,1011.25
2018-08-16T07:33:07.366Z,1011.18
2018-08-16T07:34:07.362Z,1011.18
2018-08-16T07:35:07.356Z,1011.23
2018-08-16T07:36:07.354Z,1011.25
2018-08-16T07:37:07.349Z,1011.26
2018-08-16T07:38:07.342Z,1011.24
2018-08-16T07:39:07.339Z,1011.27
2018-08-16T07:40:07.403Z,1011.29
2018-08-16T07:41:07.333Z,1011.27
2018-08-16T07:42:07.338Z,1011.30
2018-08-16T07:43:07.330Z,1011.34
2018-08-16T07:44:07.328Z,1011.32
2018-08-16T07:45:07.323Z,1011.29
2018-08-16T07:46:07.423Z,1011.35
2018-08-16T07:47:07.321Z,1011.26
2018-08-16T07:48:07.316Z,1011.29
2018-08-16T07:49:07.327Z,1011.24
2018-08-16T07:50:07.316Z,1011.25
2018-08-16T07:51:07.335Z,1011.28
2018-08-16T07:52:07.418Z,1011.20
2018-08-16T07:53:07.314Z,1011.20
2018-08-16T07:54:07.318Z,1011.20
2018-08-16T07:55:07.310Z,1011.23
2018-08-16T07:56:07.312Z,1011.25
2018-08-16T07:57:07.364Z,1011.28
2018-08-16T07:58:07.315Z,1011.33
2018-08-16T07:59:07.316Z,1011.27
2018-08-16T08:00:07.321Z,1011.29
2018-08-16T08:01:07.320Z,1011.29
2018-08-16T08:02:07.315Z,1011.30
2018-08-16T08:03:07.314Z,1011.31
2018-08-16T08:04:07.323Z,1011.35
2018-08-16T08:05:07.317Z,1011.36
2018-08-16T08:06:07.323Z,1011.29
2018-08-16T08:07:07.342Z,1011.32
2018-08-16T08:08:07.330Z,1011.31
2018-08-16T08:09:07.488Z,1011.27
2018-08-16T08:10:07.326Z,1011.31
2018-08-16T08:11:07.330Z,1011.31
2018-08-16T08:12:07.333Z,1011.32
2018-08-16T08:13:07.338Z,1011.30
2018-08-16T08:14:07.338Z,1011.33
2018-08-16T08:15:07.339Z,1011.31
2018-08-16T08:16:07.343Z,1011.28
2018-08-16T08:17:07.344Z,1011.34
2018-08-16T08:18:07.352Z,1011.29
2018-08-16T08:19:07.352Z,1011.31
2018-08-16T08:20:07.355Z,1011.28
2018-08-16T08:21:07.357Z,1011.25
2018-08-16T08:22:07.367Z,1011.33
2018-08-16T08:23:07.368Z,1011.29
2018-08-16T08:24:07.369Z,1011.32
2018-08-16T08:25:07.373Z,1011.33
2018-08-16T08:26:07.380Z,1011.33
2018-08-16T08:27:07.382Z,1011.33
2018-08-16T08:28:07.389Z,1011.38
2018-08-16T08:29:07.389Z,1011.34
2018-08-16T08:30:07.394Z,1011.33
2018-08-16T08:31:07.403Z,1011.28
2018-08-16T08:32:07.400Z,1011.36
2018-08-16T08:33:07.413Z,1011.35
2018-08-16T08:34:07.414Z,1011.32
2018-08-16T08:35:07.419Z,1011.32
2018-08-16T08:36:07.419Z,1011.34
2018-08-16T08:37:07.428Z,1011.30
2018-08-16T08:38:07.429Z,1011.35
2018-08-16T08:39:07.440Z,1011.30
2018-08-16T08:40:07.439Z,1011.26
2018-08-16T08:41:07.444Z,1011.27
2018-08-16T08:42:07.448Z,1011.35
2018-08-16T08:43:07.457Z,1011.30
2018-08-16T08:44:07.460Z,1011.30
2018-08-16T08:45:07.464Z,1011.37
2018-08-16T08:46:07.470Z,1011.37
2018-08-16T08:47:07.477Z,1011.37
2018-08-16T08:48:07.481Z,1011.33
2018-08-16T08:49:07.488Z,1011.29
2018-08-16T08:50:07.493Z,1010.49
2018-08-16T08:51:07.501Z,1010.98
2018-08-16T08:52:07.504Z,1011.27
2018-08-16T08:53:07.509Z,1010.51
2018-08-16T08:54:07.507Z,1011.29
2018-08-16T08:55:07.514Z,1011.34
2018-08-16T08:56:07.524Z,1011.31
2018-08-16T08:57:07.527Z,1011.33
2018-08-16T08:58:07.523Z,1010.58
2018-08-16T08:59:07.531Z,1010.65
2018-08-16T09:00:07.530Z,1010.62
2018-08-16T09:01:07.535Z,1011.37
2018-08-16T09:02:07.533Z,1011.18
2018-08-16T09:03:07.541Z,1011.12
2018-08-16T09:04:07.540Z,1010.96
2018-08-16T09:05:07.542Z,1010.81
2018-08-16T09:06:07.542Z,1010.95
2018-08-16T09:07:07.546Z,1010.98
2018-08-16T09:08:07.560Z,1011.08
2018-08-16T09:09:07.549Z,1011.06
2018-08-16T09:10:07.552Z,1010.77
2018-08-16T09:11:07.557Z,1010.66
2018-08-16T09:12:07.559Z,1011.02
2018-08-16T09:13:07.554Z,1011.05
2018-08-16T09:14:07.560Z,1010.52
2018-08-16T09:15:07.553Z,1010.51
2018-08-16T09:16:07.565Z,1010.59
2018-08-16T09:17:07.579Z,1010.45
2018-08-16T09:18:07.560Z,1010.47
2018-08-16T09:19:07.558Z,1010.40
2018-08-16T09:20:07.557Z,1010.88
2018-08-16T09:21:07.559Z,1010.86
2018-08-16T09:22:07.556Z,1010.79
2018-08-16T09:23:07.564Z,1010.77
2018-08-16T09:24:07.692Z,1010.85
2018-08-16T09:25:07.551Z,1010.74
2018-08-16T09:26:07.550Z,1010.70
2018-08-16T09:27:07.548Z,1010.67
2018-08-16T09:28:07.550Z,1010.75
2018-08-16T09:29:07.554Z,1010.55
2018-08-16T09:30:07.554Z,1010.75
2018-08-16T09:31:07.582Z,1010.72
2018-08-16T09:32:07.543Z,1010.66
2018-08-16T09:33:07.547Z,1010.60
2018-08-16T09:34:07.539Z,1010.57
2018-08-16T09:35:07.540Z,1010.57
2018-08-16T09:36:07.550Z,1010.47
2018-08-16T09:37:07.541Z,1010.38
2018-08-16T09:38:07.535Z,1010.46
2018-08-16T09:39:07.539Z,1010.40
2018-08-16T09:40:07.533Z,1010.41
2018-08-16T09:41:07.534Z,1010.40
2018-08-16T09:42:07.530Z,1010.41
2018-08-16T09:43:07.532Z,1010.45
2018-08-16T09:44:07.530Z,1010.42
2018-08-16T09:45:07.549Z,1010.45
2018-08-16T09:46:07.526Z,1010.43
2018-08-16T09:47:07.527Z,1010.39
2018-08-16T09:48:07.524Z,1010.36
2018-08-16T09:49:07.526Z,1010.33
2018-08-16T09:50:07.521Z,1010.16
2018-08-16T09:51:07.533Z,1010.34
2018-08-16T09:52:07.519Z,1010.35
2018-08-16T09:53:07.524Z,1010.28
2018-08-16T09:54:07.524Z,1010.29
2018-08-16T09:55:07.515Z,1010.27
2018-08-16T09:56:07.513Z,1010.26
2018-08-16T09:57:07.514Z,1010.23
2018-08-16T09:58:07.515Z,1010.22
2018-08-16T09:59:07.508Z,1010.23
2018-08-16T10:00:07.514Z,1010.02
2018-08-16T10:01:07.510Z,1010.13
2018-08-16T10:02:07.577Z,1010.21
2018-08-16T10:03:07.500Z,1010.07
2018-08-16T10:04:07.497Z,1010.08
2018-08-16T10:05:07.503Z,1010.22
2018-08-16T10:06:07.501Z,1010.23
2018-08-16T10:07:07.492Z,1010.20
2018-08-16T10:08:07.488Z,1010.15
2018-08-16T10:09:07.486Z,1010.07
2018-08-16T10:10:07.492Z,1010.08
2018-08-16T10:11:07.478Z,1010.03
2018-08-16T10:12:07.479Z,1010.04
2018-08-16T10:13:07.476Z,1010.08
2018-08-16T10:14:07.467Z,1010.06
2018-08-16T10:15:07.466Z,1010.00
2018-08-16T10:16:07.465Z,1009.98
2018-08-16T10:17:07.457Z,1010.02
2018-08-16T10:18:07.466Z,1009.97
2018-08-16T10:19:07.455Z,1009.97
2018-08-16T10:20:07.455Z,1009.90
2018-08-16T10:21:07.444Z,1009.91
2018-08-16T10:22:07.440Z,1009.95
2018-08-16T10:23:07.438Z,1009.92
2018-08-16T10:24:07.435Z,1009.88
2018-08-16T10:25:07.433Z,1009.80
2018-08-16T10:26:07.428Z,1009.86
2018-08-16T10:27:07.511Z,1009.84
2018-08-16T10:28:07.424Z,1009.88
2018-08-16T10:29:07.416Z,1009.93
2018-08-16T10:30:07.409Z,1009.95
2018-08-16T10:31:07.405Z,1010.00
2018-08-16T10:32:07.399Z,1009.96
2018-08-16T10:33:07.400Z,1009.96
2018-08-16T10:34:07.396Z,1009.95
2018-08-16T10:35:07.387Z,1009.84
2018-08-16T10:36:07.384Z,1009.90
2018-08-16T10:37:07.404Z,1009.87
2018-08-16T10:38:07.374Z,1009.87
2018-08-16T10:39:07.373Z,1009.86
2018-08-16T10:40:07.363Z,1009.85
2018-08-16T10:41:07.363Z,1009.85
2018-08-16T10:42:07.357Z,1009.83
2018-08-16T10:43:07.362Z,1009.87
2018-08-16T10:44:07.353Z,1009.82
2018-08-16T10:45:07.349Z,1009.79
2018-08-16T10:46:07.337Z,1009.83
2018-08-16T10:47:07.334Z,1009.76
2018-08-16T10:48:07.338Z,1009.77
2018-08-16T10:49:07.328Z,1009.69
2018-08-16T10:50:07.323Z,1009.73
2018-08-16T10:51:07.317Z,1009.77
2018-08-16T10:52:07.316Z,1009.69
2018-08-16T10:53:07.309Z,1009.73
2018-08-16T10:54:07.312Z,1009.78
2018-08-16T10:55:07.298Z,1009.76
2018-08-16T10:56:07.293Z,1009.77
2018-08-16T10:57:07.293Z,1009.76
2018-08-16T10:58:07.287Z,1009.73
2018-08-16T10:59:07.288Z,1009.71
2018-08-16T11:00:07.278Z,1009.72
2018-08-16T11:01:07.272Z,1009.69
2018-08-16T11:02:07.270Z,1009.67
2018-08-16T11:03:07.267Z,1009.64
2018-08-16T11:04:07.264Z,1009.63
2018-08-16T11:05:07.252Z,1009.62
2018-08-16T11:06:07.248Z,1009.65
2018-08-16T11:07:07.242Z,1009.61
2018-08-16T11:08:07.236Z,1009.65
2018-08-16T11:09:07.234Z,1009.64
2018-08-16T11:10:07.227Z,1009.66
2018-08-16T11:11:07.222Z,1009.61
2018-08-16T11:12:07.220Z,1009.63
2018-08-16T11:13:07.222Z,1009.63
2018-08-16T11:14:07.207Z,1009.64
2018-08-16T11:15:07.202Z,1009.59
2018-08-16T11:16:07.200Z,1009.64
2018-08-16T11:17:07.190Z,1009.52
2018-08-16T11:18:07.187Z,1009.54
2018-08-16T11:19:07.188Z,1009.62
2018-08-16T11:20:07.177Z,1009.55
2018-08-16T11:21:07.172Z,1009.60
2018-08-16T11:22:07.180Z,1009.52
2018-08-16T11:23:07.167Z,1009.59
2018-08-16T11:24:07.162Z,1009.54
2018-08-16T11:25:07.152Z,1009.58
2018-08-16T11:26:07.145Z,1009.56
2018-08-16T11:27:07.144Z,1009.53
2018-08-16T11:28:07.136Z,1009.53
2018-08-16T11:29:07.130Z,1009.49
2018-08-16T11:30:07.127Z,1009.56
2018-08-16T11:31:07.137Z,1009.50
2018-08-16T11:32:07.121Z,1009.49
2018-08-16T11:33:07.120Z,1009.51
2018-08-16T11:34:07.113Z,1009.49
2018-08-16T11:35:07.216Z,1009.43
2018-08-16T11:36:07.099Z,1009.43
2018-08-16T11:37:07.099Z,1009.47
2018-08-16T11:38:07.089Z,1009.44
2018-08-16T11:39:07.084Z,1009.41
2018-08-16T11:40:07.076Z,1009.36
2018-08-16T11:41:07.071Z,1009.41
2018-08-16T11:42:07.066Z,1009.42
2018-08-16T11:43:07.060Z,1009.40
2018-08-16T11:44:07.056Z,1009.42
2018-08-16T11:45:07.061Z,1009.41
2018-08-16T11:46:07.051Z,1009.35
2018-08-16T11:47:07.040Z,1009.30
2018-08-16T11:48:07.038Z,1009.35
2018-08-16T11:49:07.034Z,1009.41
2018-08-16T11:50:07.034Z,1009.40
2018-08-16T11:51:07.023Z,1009.35
2018-08-16T11:52:07.019Z,1009.31
2018-08-16T11:53:07.015Z,1009.29
2018-08-16T11:54:07.016Z,1009.33
2018-08-16T11:55:07.020Z,1009.38
2018-08-16T11:56:06.997Z,1009.28
2018-08-16T11:57:07.005Z,1009.24
2018-08-16T11:58:06.988Z,1009.21
2018-08-16T11:59:06.984Z,1009.19
2018-08-16T12:00:06.983Z,1009.21
2018-08-16T12:01:06.975Z,1009.19
2018-08-16T12:02:07.044Z,1009.22
2018-08-16T12:03:06.963Z,1009.21
2018-08-16T12:04:06.960Z,1009.20
2018-08-16T12:05:06.955Z,1009.16